sensor_id;sensor_type;location;lat;lon;timestamp;temperature;humidity
38973;DHT22;25333;50.762;4.470;2023-07-31T00:00:24;17.10;99.90
38973;DHT22;25333;50.762;4.470;2023-07-31T00:02:51;17.00;99.90
38973;DHT22;25333;50.762;4.470;2023-07-31T00:05:17;17.00;99.90
38973;DHT22;25333;50.762;4.470;2023-07-31T00:07:43;17.00;99.90
38973;DHT22;25333;50.762;4.470;2023-07-31T00:10:09;17.10;99.90
38973;DHT22;25333;50.762;4.470;2023-07-31T00:12:34;17.20;99.90
38973;DHT22;25333;50.762;4.470;2023-07-31T00:15:01;17.20;99.90
38973;DHT22;25333;50.762;4.470;2023-07-31T00:17:26;17.30;99.90
38973;DHT22;25333;50.762;4.470;2023-07-31T00:19:52;17.30;99.90
38973;DHT22;25333;50.762;4.470;2023-07-31T00:22:17;17.20;99.90
38973;DHT22;25333;50.762;4.470;2023-07-31T00:24:43;17.30;99.90
38973;DHT22;25333;50.762;4.470;2023-07-31T00:27:09;17.20;99.90
38973;DHT22;25333;50.762;4.470;2023-07-31T00:29:34;17.30;99.90
38973;DHT22;25333;50.762;4.470;2023-07-31T00:32:00;17.40;99.90
38973;DHT22;25333;50.762;4.470;2023-07-31T00:34:26;17.40;99.90
38973;DHT22;25333;50.762;4.470;2023-07-31T00:36:52;17.40;99.90
38973;DHT22;25333;50.762;4.470;2023-07-31T00:39:17;17.40;99.90
38973;DHT22;25333;50.762;4.470;2023-07-31T00:41:43;17.30;99.90
38973;DHT22;25333;50.762;4.470;2023-07-31T00:44:08;17.20;99.90
38973;DHT22;25333;50.762;4.470;2023-07-31T00:46:34;17.20;99.90
38973;DHT22;25333;50.762;4.470;2023-07-31T00:49:02;17.30;99.90
38973;DHT22;25333;50.762;4.470;2023-07-31T00:51:28;17.30;99.90
38973;DHT22;25333;50.762;4.470;2023-07-31T00:53:53;17.30;99.90
38973;DHT22;25333;50.762;4.470;2023-07-31T00:56:23;17.30;99.90
38973;DHT22;25333;50.762;4.470;2023-07-31T00:58:49;17.40;99.90
38973;DHT22;25333;50.762;4.470;2023-07-31T01:01:15;17.40;99.90
38973;DHT22;25333;50.762;4.470;2023-07-31T01:03:40;17.30;99.90
38973;DHT22;25333;50.762;4.470;2023-07-31T01:11:30;17.30;99.90
38973;DHT22;25333;50.762;4.470;2023-07-31T01:13:57;17.30;99.90
38973;DHT22;25333;50.762;4.470;2023-07-31T01:16:25;17.30;99.90
38973;DHT22;25333;50.762;4.470;2023-07-31T01:18:51;17.30;99.90
38973;DHT22;25333;50.762;4.470;2023-07-31T01:26:38;17.40;99.90
38973;DHT22;25333;50.762;4.470;2023-07-31T01:31:45;17.40;99.90
38973;DHT22;25333;50.762;4.470;2023-07-31T01:34:14;17.40;99.90
38973;DHT22;25333;50.762;4.470;2023-07-31T01:36:43;17.30;99.90
38973;DHT22;25333;50.762;4.470;2023-07-31T01:39:09;17.20;99.90
38973;DHT22;25333;50.762;4.470;2023-07-31T01:41:34;17.30;99.90
38973;DHT22;25333;50.762;4.470;2023-07-31T01:44:00;17.20;99.90
38973;DHT22;25333;50.762;4.470;2023-07-31T01:46:26;17.20;99.90
38973;DHT22;25333;50.762;4.470;2023-07-31T01:48:51;17.20;99.90
38973;DHT22;25333;50.762;4.470;2023-07-31T01:51:17;17.30;99.90
38973;DHT22;25333;50.762;4.470;2023-07-31T01:53:42;17.30;99.90
38973;DHT22;25333;50.762;4.470;2023-07-31T01:56:08;17.40;99.90
38973;DHT22;25333;50.762;4.470;2023-07-31T01:58:34;17.40;99.90
38973;DHT22;25333;50.762;4.470;2023-07-31T02:00:59;17.40;99.90
38973;DHT22;25333;50.762;4.470;2023-07-31T02:03:25;17.50;99.90
38973;DHT22;25333;50.762;4.470;2023-07-31T02:05:51;17.40;99.90
38973;DHT22;25333;50.762;4.470;2023-07-31T02:08:16;17.50;99.90
38973;DHT22;25333;50.762;4.470;2023-07-31T02:10:42;17.50;99.90
38973;DHT22;25333;50.762;4.470;2023-07-31T02:13:08;17.50;99.90
38973;DHT22;25333;50.762;4.470;2023-07-31T02:15:34;17.50;99.90
38973;DHT22;25333;50.762;4.470;2023-07-31T02:17:59;17.60;99.90
38973;DHT22;25333;50.762;4.470;2023-07-31T02:20:25;17.50;99.90
38973;DHT22;25333;50.762;4.470;2023-07-31T02:22:51;17.50;99.90
38973;DHT22;25333;50.762;4.470;2023-07-31T02:25:16;17.50;99.90
38973;DHT22;25333;50.762;4.470;2023-07-31T02:27:42;17.50;99.90
38973;DHT22;25333;50.762;4.470;2023-07-31T02:30:08;17.50;99.90
38973;DHT22;25333;50.762;4.470;2023-07-31T02:32:34;17.50;99.90
38973;DHT22;25333;50.762;4.470;2023-07-31T02:35:00;17.50;99.90
38973;DHT22;25333;50.762;4.470;2023-07-31T02:37:25;17.50;99.90
38973;DHT22;25333;50.762;4.470;2023-07-31T02:39:51;17.50;99.90
38973;DHT22;25333;50.762;4.470;2023-07-31T02:42:17;17.50;99.90
38973;DHT22;25333;50.762;4.470;2023-07-31T02:44:42;17.40;99.90
38973;DHT22;25333;50.762;4.470;2023-07-31T02:47:08;17.40;99.90
38973;DHT22;25333;50.762;4.470;2023-07-31T02:49:34;17.50;99.90
38973;DHT22;25333;50.762;4.470;2023-07-31T02:51:59;17.50;99.90
38973;DHT22;25333;50.762;4.470;2023-07-31T02:54:25;17.50;99.90
38973;DHT22;25333;50.762;4.470;2023-07-31T02:56:50;17.50;99.90
38973;DHT22;25333;50.762;4.470;2023-07-31T02:59:17;17.50;99.90
38973;DHT22;25333;50.762;4.470;2023-07-31T03:01:43;17.50;99.90
38973;DHT22;25333;50.762;4.470;2023-07-31T03:04:09;17.40;99.90
38973;DHT22;25333;50.762;4.470;2023-07-31T03:06:34;17.50;99.90
38973;DHT22;25333;50.762;4.470;2023-07-31T03:09:00;17.50;99.90
38973;DHT22;25333;50.762;4.470;2023-07-31T03:11:25;17.50;99.90
38973;DHT22;25333;50.762;4.470;2023-07-31T03:13:51;17.50;99.90
38973;DHT22;25333;50.762;4.470;2023-07-31T03:16:17;17.50;99.90
38973;DHT22;25333;50.762;4.470;2023-07-31T03:18:43;17.50;99.90
38973;DHT22;25333;50.762;4.470;2023-07-31T03:21:08;17.50;99.90
38973;DHT22;25333;50.762;4.470;2023-07-31T03:23:37;17.60;99.90
38973;DHT22;25333;50.762;4.470;2023-07-31T03:26:06;17.60;99.90
38973;DHT22;25333;50.762;4.470;2023-07-31T03:28:32;17.50;99.90
38973;DHT22;25333;50.762;4.470;2023-07-31T03:30:58;17.50;99.90
38973;DHT22;25333;50.762;4.470;2023-07-31T03:33:23;17.40;99.90
38973;DHT22;25333;50.762;4.470;2023-07-31T03:35:49;17.50;99.90
38973;DHT22;25333;50.762;4.470;2023-07-31T03:38:15;17.50;99.90
38973;DHT22;25333;50.762;4.470;2023-07-31T03:40:40;17.50;99.90
38973;DHT22;25333;50.762;4.470;2023-07-31T03:43:06;17.50;99.90
38973;DHT22;25333;50.762;4.470;2023-07-31T03:45:32;17.50;99.90
38973;DHT22;25333;50.762;4.470;2023-07-31T03:47:58;17.50;99.90
38973;DHT22;25333;50.762;4.470;2023-07-31T03:50:23;17.50;99.90
38973;DHT22;25333;50.762;4.470;2023-07-31T03:52:50;17.50;99.90
38973;DHT22;25333;50.762;4.470;2023-07-31T03:55:16;17.50;99.90
38973;DHT22;25333;50.762;4.470;2023-07-31T03:57:41;17.50;99.90
38973;DHT22;25333;50.762;4.470;2023-07-31T04:00:07;17.40;99.90
38973;DHT22;25333;50.762;4.470;2023-07-31T04:02:33;17.30;99.90
38973;DHT22;25333;50.762;4.470;2023-07-31T04:04:59;17.30;99.90
38973;DHT22;25333;50.762;4.470;2023-07-31T04:07:24;17.30;99.90
38973;DHT22;25333;50.762;4.470;2023-07-31T04:09:50;17.40;99.90
38973;DHT22;25333;50.762;4.470;2023-07-31T04:12:15;17.30;99.90
38973;DHT22;25333;50.762;4.470;2023-07-31T04:14:41;17.40;99.90
38973;DHT22;25333;50.762;4.470;2023-07-31T04:17:07;17.40;99.90
38973;DHT22;25333;50.762;4.470;2023-07-31T04:19:32;17.40;99.90
38973;DHT22;25333;50.762;4.470;2023-07-31T04:21:58;17.40;99.90
38973;DHT22;25333;50.762;4.470;2023-07-31T04:24:23;17.40;99.90
38973;DHT22;25333;50.762;4.470;2023-07-31T04:26:53;17.30;99.90
38973;DHT22;25333;50.762;4.470;2023-07-31T04:29:19;17.30;99.90
38973;DHT22;25333;50.762;4.470;2023-07-31T04:31:45;17.30;99.90
38973;DHT22;25333;50.762;4.470;2023-07-31T04:34:11;17.30;99.90
38973;DHT22;25333;50.762;4.470;2023-07-31T04:36:39;17.30;99.90
38973;DHT22;25333;50.762;4.470;2023-07-31T04:39:05;17.30;99.90
38973;DHT22;25333;50.762;4.470;2023-07-31T04:41:30;17.30;99.90
38973;DHT22;25333;50.762;4.470;2023-07-31T04:43:56;17.20;99.90
38973;DHT22;25333;50.762;4.470;2023-07-31T04:46:22;17.20;99.90
38973;DHT22;25333;50.762;4.470;2023-07-31T04:48:47;17.30;99.90
38973;DHT22;25333;50.762;4.470;2023-07-31T04:51:13;17.30;99.90
38973;DHT22;25333;50.762;4.470;2023-07-31T04:53:39;17.20;99.90
38973;DHT22;25333;50.762;4.470;2023-07-31T04:56:04;17.30;99.90
38973;DHT22;25333;50.762;4.470;2023-07-31T04:58:30;17.30;99.90
38973;DHT22;25333;50.762;4.470;2023-07-31T05:00:55;17.30;99.90
38973;DHT22;25333;50.762;4.470;2023-07-31T05:03:21;17.40;99.90
38973;DHT22;25333;50.762;4.470;2023-07-31T05:05:47;17.30;99.90
38973;DHT22;25333;50.762;4.470;2023-07-31T05:08:13;17.20;99.90
38973;DHT22;25333;50.762;4.470;2023-07-31T05:10:39;17.10;99.90
38973;DHT22;25333;50.762;4.470;2023-07-31T05:13:04;17.00;99.90
38973;DHT22;25333;50.762;4.470;2023-07-31T05:15:30;16.90;99.90
38973;DHT22;25333;50.762;4.470;2023-07-31T05:17:56;17.00;99.90
38973;DHT22;25333;50.762;4.470;2023-07-31T05:20:21;17.00;99.90
38973;DHT22;25333;50.762;4.470;2023-07-31T05:22:47;17.00;99.90
38973;DHT22;25333;50.762;4.470;2023-07-31T05:25:13;17.00;99.90
38973;DHT22;25333;50.762;4.470;2023-07-31T05:27:38;16.90;99.90
38973;DHT22;25333;50.762;4.470;2023-07-31T05:30:05;16.90;99.90
38973;DHT22;25333;50.762;4.470;2023-07-31T05:32:31;16.90;99.90
38973;DHT22;25333;50.762;4.470;2023-07-31T05:34:56;17.00;99.90
38973;DHT22;25333;50.762;4.470;2023-07-31T05:37:22;17.00;99.90
38973;DHT22;25333;50.762;4.470;2023-07-31T05:39:48;16.90;99.90
38973;DHT22;25333;50.762;4.470;2023-07-31T05:42:14;16.90;99.90
38973;DHT22;25333;50.762;4.470;2023-07-31T05:44:39;16.80;99.90
38973;DHT22;25333;50.762;4.470;2023-07-31T05:47:05;16.80;99.90
38973;DHT22;25333;50.762;4.470;2023-07-31T05:49:31;16.80;99.90
38973;DHT22;25333;50.762;4.470;2023-07-31T05:51:56;16.80;99.90
38973;DHT22;25333;50.762;4.470;2023-07-31T05:54:22;16.80;99.90
38973;DHT22;25333;50.762;4.470;2023-07-31T05:56:48;16.80;99.90
38973;DHT22;25333;50.762;4.470;2023-07-31T05:59:16;16.80;99.90
38973;DHT22;25333;50.762;4.470;2023-07-31T06:01:42;16.80;99.90
38973;DHT22;25333;50.762;4.470;2023-07-31T06:04:08;16.80;99.90
38973;DHT22;25333;50.762;4.470;2023-07-31T06:06:34;16.80;99.90
38973;DHT22;25333;50.762;4.470;2023-07-31T06:08:59;16.80;99.90
38973;DHT22;25333;50.762;4.470;2023-07-31T06:11:25;16.80;99.90
38973;DHT22;25333;50.762;4.470;2023-07-31T06:13:51;16.70;99.90
38973;DHT22;25333;50.762;4.470;2023-07-31T06:16:17;16.80;99.90
38973;DHT22;25333;50.762;4.470;2023-07-31T06:18:43;16.80;99.90
38973;DHT22;25333;50.762;4.470;2023-07-31T06:21:09;16.80;99.90
38973;DHT22;25333;50.762;4.470;2023-07-31T06:23:36;16.90;99.90
38973;DHT22;25333;50.762;4.470;2023-07-31T06:26:02;16.80;99.90
38973;DHT22;25333;50.762;4.470;2023-07-31T06:28:31;16.80;99.90
38973;DHT22;25333;50.762;4.470;2023-07-31T06:31:00;16.90;99.90
38973;DHT22;25333;50.762;4.470;2023-07-31T06:33:29;16.80;99.90
38973;DHT22;25333;50.762;4.470;2023-07-31T06:35:54;16.80;99.90
38973;DHT22;25333;50.762;4.470;2023-07-31T06:38:22;16.90;99.90
38973;DHT22;25333;50.762;4.470;2023-07-31T06:40:49;16.90;99.90
38973;DHT22;25333;50.762;4.470;2023-07-31T06:43:15;16.90;99.90
38973;DHT22;25333;50.762;4.470;2023-07-31T06:45:40;16.90;99.90
38973;DHT22;25333;50.762;4.470;2023-07-31T06:48:06;16.80;99.90
38973;DHT22;25333;50.762;4.470;2023-07-31T06:50:32;16.80;99.90
38973;DHT22;25333;50.762;4.470;2023-07-31T06:52:58;16.90;99.90
38973;DHT22;25333;50.762;4.470;2023-07-31T06:55:24;16.90;99.90
38973;DHT22;25333;50.762;4.470;2023-07-31T06:57:52;16.90;99.90
38973;DHT22;25333;50.762;4.470;2023-07-31T07:00:19;16.90;99.90
38973;DHT22;25333;50.762;4.470;2023-07-31T07:02:53;16.90;99.90
38973;DHT22;25333;50.762;4.470;2023-07-31T07:05:19;16.90;99.90
38973;DHT22;25333;50.762;4.470;2023-07-31T07:07:44;16.90;99.90
38973;DHT22;25333;50.762;4.470;2023-07-31T07:10:10;16.90;99.90
38973;DHT22;25333;50.762;4.470;2023-07-31T07:12:36;16.90;99.90
38973;DHT22;25333;50.762;4.470;2023-07-31T07:15:02;17.00;99.90
38973;DHT22;25333;50.762;4.470;2023-07-31T07:17:29;17.00;99.90
38973;DHT22;25333;50.762;4.470;2023-07-31T07:19:58;17.10;99.90
38973;DHT22;25333;50.762;4.470;2023-07-31T07:22:24;17.10;99.90
38973;DHT22;25333;50.762;4.470;2023-07-31T07:24:50;17.00;99.90
38973;DHT22;25333;50.762;4.470;2023-07-31T07:27:16;17.10;99.90
38973;DHT22;25333;50.762;4.470;2023-07-31T07:29:41;17.10;99.90
38973;DHT22;25333;50.762;4.470;2023-07-31T07:32:07;17.10;99.90
38973;DHT22;25333;50.762;4.470;2023-07-31T07:34:33;17.10;99.90
38973;DHT22;25333;50.762;4.470;2023-07-31T07:36:58;17.10;99.90
38973;DHT22;25333;50.762;4.470;2023-07-31T07:39:24;17.20;99.90
38973;DHT22;25333;50.762;4.470;2023-07-31T07:41:50;17.20;99.90
38973;DHT22;25333;50.762;4.470;2023-07-31T07:44:23;17.20;99.90
38973;DHT22;25333;50.762;4.470;2023-07-31T07:46:49;17.10;99.90
38973;DHT22;25333;50.762;4.470;2023-07-31T07:49:17;17.10;99.90
38973;DHT22;25333;50.762;4.470;2023-07-31T07:51:42;17.10;99.90
38973;DHT22;25333;50.762;4.470;2023-07-31T07:54:08;17.10;99.90
38973;DHT22;25333;50.762;4.470;2023-07-31T07:56:34;17.10;99.90
38973;DHT22;25333;50.762;4.470;2023-07-31T07:59:01;17.00;99.90
38973;DHT22;25333;50.762;4.470;2023-07-31T08:01:27;17.10;99.90
38973;DHT22;25333;50.762;4.470;2023-07-31T08:04:03;17.10;99.90
38973;DHT22;25333;50.762;4.470;2023-07-31T08:06:29;17.20;99.90
38973;DHT22;25333;50.762;4.470;2023-07-31T08:08:55;17.20;99.90
38973;DHT22;25333;50.762;4.470;2023-07-31T08:11:21;17.20;99.90
38973;DHT22;25333;50.762;4.470;2023-07-31T08:13:49;17.20;99.90
38973;DHT22;25333;50.762;4.470;2023-07-31T08:16:15;17.30;99.90
38973;DHT22;25333;50.762;4.470;2023-07-31T08:18:40;17.30;99.90
38973;DHT22;25333;50.762;4.470;2023-07-31T08:21:10;17.30;99.90
38973;DHT22;25333;50.762;4.470;2023-07-31T08:23:35;17.30;99.90
38973;DHT22;25333;50.762;4.470;2023-07-31T08:26:01;17.20;99.90
38973;DHT22;25333;50.762;4.470;2023-07-31T08:28:26;17.30;99.90
38973;DHT22;25333;50.762;4.470;2023-07-31T08:30:52;17.30;99.90
38973;DHT22;25333;50.762;4.470;2023-07-31T08:33:18;17.30;99.90
38973;DHT22;25333;50.762;4.470;2023-07-31T08:35:43;17.20;99.90
38973;DHT22;25333;50.762;4.470;2023-07-31T08:38:09;17.20;99.90
38973;DHT22;25333;50.762;4.470;2023-07-31T08:40:38;17.10;99.90
38973;DHT22;25333;50.762;4.470;2023-07-31T08:43:04;17.10;99.90
38973;DHT22;25333;50.762;4.470;2023-07-31T08:45:30;17.20;99.90
38973;DHT22;25333;50.762;4.470;2023-07-31T08:47:56;17.20;99.90
38973;DHT22;25333;50.762;4.470;2023-07-31T08:50:31;17.10;99.90
38973;DHT22;25333;50.762;4.470;2023-07-31T08:52:57;17.10;99.90
38973;DHT22;25333;50.762;4.470;2023-07-31T08:55:27;17.10;99.90
38973;DHT22;25333;50.762;4.470;2023-07-31T08:57:54;17.10;99.90
38973;DHT22;25333;50.762;4.470;2023-07-31T09:00:20;17.10;99.90
38973;DHT22;25333;50.762;4.470;2023-07-31T09:05:18;17.10;99.90
38973;DHT22;25333;50.762;4.470;2023-07-31T09:07:47;17.10;99.90
38973;DHT22;25333;50.762;4.470;2023-07-31T09:10:13;17.00;99.90
38973;DHT22;25333;50.762;4.470;2023-07-31T09:12:39;17.10;99.90
38973;DHT22;25333;50.762;4.470;2023-07-31T09:15:05;17.20;99.90
38973;DHT22;25333;50.762;4.470;2023-07-31T09:17:32;17.20;99.90
38973;DHT22;25333;50.762;4.470;2023-07-31T09:20:12;17.20;99.90
38973;DHT22;25333;50.762;4.470;2023-07-31T09:22:38;17.30;99.90
38973;DHT22;25333;50.762;4.470;2023-07-31T09:25:18;17.40;99.90
38973;DHT22;25333;50.762;4.470;2023-07-31T09:27:58;17.30;99.90
38973;DHT22;25333;50.762;4.470;2023-07-31T09:30:24;17.30;99.90
38973;DHT22;25333;50.762;4.470;2023-07-31T09:32:51;17.40;99.90
38973;DHT22;25333;50.762;4.470;2023-07-31T09:35:32;17.40;99.90
38973;DHT22;25333;50.762;4.470;2023-07-31T09:38:00;17.40;99.90
38973;DHT22;25333;50.762;4.470;2023-07-31T09:40:30;17.40;99.90
38973;DHT22;25333;50.762;4.470;2023-07-31T09:42:57;17.50;99.90
38973;DHT22;25333;50.762;4.470;2023-07-31T09:45:24;17.50;99.90
38973;DHT22;25333;50.762;4.470;2023-07-31T09:47:50;17.40;99.90
38973;DHT22;25333;50.762;4.470;2023-07-31T09:50:16;17.50;99.90
38973;DHT22;25333;50.762;4.470;2023-07-31T09:52:42;17.50;99.90
38973;DHT22;25333;50.762;4.470;2023-07-31T09:55:09;17.60;99.90
38973;DHT22;25333;50.762;4.470;2023-07-31T09:57:39;17.60;99.90
38973;DHT22;25333;50.762;4.470;2023-07-31T10:00:06;17.70;99.90
38973;DHT22;25333;50.762;4.470;2023-07-31T10:02:35;17.70;99.90
38973;DHT22;25333;50.762;4.470;2023-07-31T10:05:02;17.70;99.90
38973;DHT22;25333;50.762;4.470;2023-07-31T10:07:30;17.60;99.90
38973;DHT22;25333;50.762;4.470;2023-07-31T10:09:58;17.60;99.90
38973;DHT22;25333;50.762;4.470;2023-07-31T10:12:26;17.70;99.90
38973;DHT22;25333;50.762;4.470;2023-07-31T10:14:54;17.70;99.90
38973;DHT22;25333;50.762;4.470;2023-07-31T10:17:21;17.70;99.90
38973;DHT22;25333;50.762;4.470;2023-07-31T10:19:48;17.80;99.90
38973;DHT22;25333;50.762;4.470;2023-07-31T10:22:14;17.80;99.90
38973;DHT22;25333;50.762;4.470;2023-07-31T10:24:43;17.80;99.90
38973;DHT22;25333;50.762;4.470;2023-07-31T10:27:09;17.90;99.90
38973;DHT22;25333;50.762;4.470;2023-07-31T10:29:37;18.00;99.90
38973;DHT22;25333;50.762;4.470;2023-07-31T10:32:04;18.00;99.90
38973;DHT22;25333;50.762;4.470;2023-07-31T10:34:36;18.20;99.90
38973;DHT22;25333;50.762;4.470;2023-07-31T10:39:58;18.20;99.90
38973;DHT22;25333;50.762;4.470;2023-07-31T10:42:35;18.30;99.90
38973;DHT22;25333;50.762;4.470;2023-07-31T10:45:06;18.30;99.90
38973;DHT22;25333;50.762;4.470;2023-07-31T10:47:48;18.30;99.90
38973;DHT22;25333;50.762;4.470;2023-07-31T10:50:17;18.30;99.90
38973;DHT22;25333;50.762;4.470;2023-07-31T10:52:46;18.10;99.90
38973;DHT22;25333;50.762;4.470;2023-07-31T10:57:45;18.00;99.90
38973;DHT22;25333;50.762;4.470;2023-07-31T11:00:29;18.10;99.90
38973;DHT22;25333;50.762;4.470;2023-07-31T11:08:29;18.40;99.90
38973;DHT22;25333;50.762;4.470;2023-07-31T11:13:33;18.40;99.90
38973;DHT22;25333;50.762;4.470;2023-07-31T11:16:00;18.50;99.90
38973;DHT22;25333;50.762;4.470;2023-07-31T11:18:27;18.60;99.90
38973;DHT22;25333;50.762;4.470;2023-07-31T11:20:53;18.60;99.90
38973;DHT22;25333;50.762;4.470;2023-07-31T11:23:19;18.60;99.90
38973;DHT22;25333;50.762;4.470;2023-07-31T11:25:45;18.50;99.90
38973;DHT22;25333;50.762;4.470;2023-07-31T11:28:14;18.50;99.90
38973;DHT22;25333;50.762;4.470;2023-07-31T11:30:42;18.50;99.90
38973;DHT22;25333;50.762;4.470;2023-07-31T11:33:09;18.60;99.90
38973;DHT22;25333;50.762;4.470;2023-07-31T11:35:40;18.70;99.90
38973;DHT22;25333;50.762;4.470;2023-07-31T11:38:07;18.70;99.90
38973;DHT22;25333;50.762;4.470;2023-07-31T11:40:41;18.80;99.90
38973;DHT22;25333;50.762;4.470;2023-07-31T11:43:07;18.80;99.90
38973;DHT22;25333;50.762;4.470;2023-07-31T11:45:33;18.70;99.90
38973;DHT22;25333;50.762;4.470;2023-07-31T11:48:00;18.70;99.90
38973;DHT22;25333;50.762;4.470;2023-07-31T11:50:26;18.80;99.90
38973;DHT22;25333;50.762;4.470;2023-07-31T11:53:01;18.80;99.90
38973;DHT22;25333;50.762;4.470;2023-07-31T11:55:28;18.80;99.90
38973;DHT22;25333;50.762;4.470;2023-07-31T11:57:56;18.80;99.90
38973;DHT22;25333;50.762;4.470;2023-07-31T12:00:23;18.70;99.90
38973;DHT22;25333;50.762;4.470;2023-07-31T12:02:50;18.70;99.90
38973;DHT22;25333;50.762;4.470;2023-07-31T12:05:16;18.80;99.90
38973;DHT22;25333;50.762;4.470;2023-07-31T12:07:52;18.90;99.90
38973;DHT22;25333;50.762;4.470;2023-07-31T12:10:30;18.90;99.90
38973;DHT22;25333;50.762;4.470;2023-07-31T12:13:04;19.00;99.90
38973;DHT22;25333;50.762;4.470;2023-07-31T12:15:41;19.10;99.90
38973;DHT22;25333;50.762;4.470;2023-07-31T12:18:09;19.20;99.90
38973;DHT22;25333;50.762;4.470;2023-07-31T12:20:35;19.20;99.90
38973;DHT22;25333;50.762;4.470;2023-07-31T12:23:01;19.20;99.90
38973;DHT22;25333;50.762;4.470;2023-07-31T12:25:33;19.20;99.90
38973;DHT22;25333;50.762;4.470;2023-07-31T12:28:04;19.20;99.90
38973;DHT22;25333;50.762;4.470;2023-07-31T12:30:33;19.30;99.90
38973;DHT22;25333;50.762;4.470;2023-07-31T12:33:05;19.30;99.90
38973;DHT22;25333;50.762;4.470;2023-07-31T12:35:38;19.30;99.90
38973;DHT22;25333;50.762;4.470;2023-07-31T12:38:05;19.30;99.90
38973;DHT22;25333;50.762;4.470;2023-07-31T12:40:31;19.30;99.90
38973;DHT22;25333;50.762;4.470;2023-07-31T12:42:57;19.30;99.90
38973;DHT22;25333;50.762;4.470;2023-07-31T12:45:23;19.30;99.90
38973;DHT22;25333;50.762;4.470;2023-07-31T12:47:48;19.30;99.90
38973;DHT22;25333;50.762;4.470;2023-07-31T12:50:19;19.20;99.90
38973;DHT22;25333;50.762;4.470;2023-07-31T12:52:45;19.10;99.90
38973;DHT22;25333;50.762;4.470;2023-07-31T12:55:11;19.00;99.90
38973;DHT22;25333;50.762;4.470;2023-07-31T12:57:37;19.10;99.90
38973;DHT22;25333;50.762;4.470;2023-07-31T13:00:04;19.20;99.90
38973;DHT22;25333;50.762;4.470;2023-07-31T13:02:30;19.20;99.90
38973;DHT22;25333;50.762;4.470;2023-07-31T13:04:56;19.10;99.90
38973;DHT22;25333;50.762;4.470;2023-07-31T13:07:22;19.10;99.90
38973;DHT22;25333;50.762;4.470;2023-07-31T13:09:48;19.20;99.90
38973;DHT22;25333;50.762;4.470;2023-07-31T13:12:14;19.20;99.90
38973;DHT22;25333;50.762;4.470;2023-07-31T13:14:39;19.10;99.90
38973;DHT22;25333;50.762;4.470;2023-07-31T13:17:05;19.10;99.90
38973;DHT22;25333;50.762;4.470;2023-07-31T13:19:31;19.10;99.90
38973;DHT22;25333;50.762;4.470;2023-07-31T13:21:57;19.00;99.90
38973;DHT22;25333;50.762;4.470;2023-07-31T13:24:22;19.00;99.90
38973;DHT22;25333;50.762;4.470;2023-07-31T13:26:48;18.90;99.90
38973;DHT22;25333;50.762;4.470;2023-07-31T13:29:14;18.80;99.90
38973;DHT22;25333;50.762;4.470;2023-07-31T13:31:39;18.80;99.90
38973;DHT22;25333;50.762;4.470;2023-07-31T13:34:05;18.80;99.90
38973;DHT22;25333;50.762;4.470;2023-07-31T13:36:30;18.60;99.90
38973;DHT22;25333;50.762;4.470;2023-07-31T13:39:00;18.50;99.90
38973;DHT22;25333;50.762;4.470;2023-07-31T13:41:26;18.50;99.90
38973;DHT22;25333;50.762;4.470;2023-07-31T13:43:55;18.50;99.90
38973;DHT22;25333;50.762;4.470;2023-07-31T13:49:09;18.50;99.90
38973;DHT22;25333;50.762;4.470;2023-07-31T13:51:38;18.50;99.90
38973;DHT22;25333;50.762;4.470;2023-07-31T13:54:08;18.50;99.90
38973;DHT22;25333;50.762;4.470;2023-07-31T13:56:40;18.50;99.90
38973;DHT22;25333;50.762;4.470;2023-07-31T13:59:15;18.40;99.90
38973;DHT22;25333;50.762;4.470;2023-07-31T14:01:54;18.40;99.90
38973;DHT22;25333;50.762;4.470;2023-07-31T14:04:26;18.30;99.90
38973;DHT22;25333;50.762;4.470;2023-07-31T14:06:59;18.20;99.90
38973;DHT22;25333;50.762;4.470;2023-07-31T14:09:30;18.10;99.90
38973;DHT22;25333;50.762;4.470;2023-07-31T14:12:09;18.20;99.90
38973;DHT22;25333;50.762;4.470;2023-07-31T14:14:47;18.20;99.90
38973;DHT22;25333;50.762;4.470;2023-07-31T14:17:12;18.20;99.90
38973;DHT22;25333;50.762;4.470;2023-07-31T14:19:55;18.20;99.90
38973;DHT22;25333;50.762;4.470;2023-07-31T14:23:21;18.20;99.90
38973;DHT22;25333;50.762;4.470;2023-07-31T14:25:28;18.30;99.90
38973;DHT22;25333;50.762;4.470;2023-07-31T14:28:02;18.30;99.90
38973;DHT22;25333;50.762;4.470;2023-07-31T14:31:05;18.20;99.90
38973;DHT22;25333;50.762;4.470;2023-07-31T14:33:36;18.20;99.90
38973;DHT22;25333;50.762;4.470;2023-07-31T14:36:15;18.20;99.90
38973;DHT22;25333;50.762;4.470;2023-07-31T14:38:53;18.30;99.90
38973;DHT22;25333;50.762;4.470;2023-07-31T14:44:23;18.40;99.90
38973;DHT22;25333;50.762;4.470;2023-07-31T14:46:59;18.40;99.90
38973;DHT22;25333;50.762;4.470;2023-07-31T14:49:33;18.30;99.90
38973;DHT22;25333;50.762;4.470;2023-07-31T14:52:05;18.30;99.90
38973;DHT22;25333;50.762;4.470;2023-07-31T14:58:22;18.30;99.90
38973;DHT22;25333;50.762;4.470;2023-07-31T15:01:16;18.30;99.90
38973;DHT22;25333;50.762;4.470;2023-07-31T15:13:44;18.30;99.90
38973;DHT22;25333;50.762;4.470;2023-07-31T15:22:05;18.30;99.90
38973;DHT22;25333;50.762;4.470;2023-07-31T15:36:24;18.10;99.90
38973;DHT22;25333;50.762;4.470;2023-07-31T15:39:13;18.10;99.90
38973;DHT22;25333;50.762;4.470;2023-07-31T15:42:00;18.10;99.90
38973;DHT22;25333;50.762;4.470;2023-07-31T15:44:26;18.00;99.90
38973;DHT22;25333;50.762;4.470;2023-07-31T15:46:58;18.00;99.90
38973;DHT22;25333;50.762;4.470;2023-07-31T15:49:37;18.10;99.90
38973;DHT22;25333;50.762;4.470;2023-07-31T15:52:13;18.10;99.90
38973;DHT22;25333;50.762;4.470;2023-07-31T15:54:42;17.90;99.90
38973;DHT22;25333;50.762;4.470;2023-07-31T15:57:11;18.00;99.90
38973;DHT22;25333;50.762;4.470;2023-07-31T15:59:50;18.00;99.90
38973;DHT22;25333;50.762;4.470;2023-07-31T16:02:16;18.00;99.90
38973;DHT22;25333;50.762;4.470;2023-07-31T16:04:45;18.00;99.90
38973;DHT22;25333;50.762;4.470;2023-07-31T16:07:21;18.00;99.90
38973;DHT22;25333;50.762;4.470;2023-07-31T16:10:22;18.00;99.90
38973;DHT22;25333;50.762;4.470;2023-07-31T16:13:29;17.90;99.90
38973;DHT22;25333;50.762;4.470;2023-07-31T16:23:27;17.90;99.90
38973;DHT22;25333;50.762;4.470;2023-07-31T16:29:02;18.00;99.90
38973;DHT22;25333;50.762;4.470;2023-07-31T16:44:16;18.00;99.90
38973;DHT22;25333;50.762;4.470;2023-07-31T16:53:42;17.90;99.90
38973;DHT22;25333;50.762;4.470;2023-07-31T16:56:35;17.80;99.90
38973;DHT22;25333;50.762;4.470;2023-07-31T17:04:37;17.90;99.90
38973;DHT22;25333;50.762;4.470;2023-07-31T17:07:12;17.90;99.90
38973;DHT22;25333;50.762;4.470;2023-07-31T17:12:41;18.00;99.90
38973;DHT22;25333;50.762;4.470;2023-07-31T17:15:34;17.90;99.90
38973;DHT22;25333;50.762;4.470;2023-07-31T17:18:02;18.00;99.90
38973;DHT22;25333;50.762;4.470;2023-07-31T17:20:49;18.00;99.90